Accueil
METAR-TAF:

METAR-TAF

Aéroports :

Cranfield, Angleterre

latitude: 52-04N, longitude: 000-37W, altitude: 111 m

Observation

Le bulletin a été fait il y a 33 minutes, à 09:20 UTC
Vent 14 kt de sud-ouest
Température 20°C
Humidité 88%
Pression 1009 hPa
Visibilité 10 km ou plus
Nuages épars à une hauteur de 1200 ft
Nuages épars à une hauteur de 3600 ft

METAR: EGTC 170920Z 22014KT 9999 SCT012 SCT036 20/18 Q1009

Heure: 10:53 (09:53 UTC)

Prévision

Le bulletin a été fait il y a 1 heure et 53 minutes, à 08:00 UTC
Prévision valable du 17 à 09 UTC au 17 à 18 UTC
Vent 14 kt de sud/sud-ouest
Visibilité 10 km ou plus
Nuages épars à une hauteur de 4000 ft
Temporairement
du 17 à 09 UTC au 17 à 11 UTC
Nuages fragmentés à une hauteur de 900 ft
Probabilité 30% :
Temporairement
du 17 à 09 UTC au 17 à 18 UTC
Visibilité: 7000 m
averses de pluie

TAF: EGTC 170800Z 1709/1718 20014KT 9999 SCT040 TEMPO 1709/1711 BKN009 PROB30 TEMPO 1709/1718 7000 SHRA

Observations et prévisions météorologiques de plus de 4000 aéroports (messages METAR et TAF).

Les stations disponibles sont représentées par des disques jaunes et rouges sur la carte.

Passer la souris dessus pour voir le nom de la station.

Cliquer dessus pour voir les observations et prévisions météorologiques.

Pour changer de carte: cliquez sur les boutons verts avec une croix noire pour zoomer, sur le bouton vert avec un tiret pour effectuer un zoom arrière, ou sur les flèches vertes pour les cartes adjacentes.


METAR-TAF: